createdAt,value
2023-05-22T00:02:23.015Z,13.03
2023-05-22T00:04:54.745Z,14.60
2023-05-22T00:07:24.611Z,16.90
2023-05-22T00:09:56.964Z,18.80
2023-05-22T00:12:26.868Z,12.70
2023-05-22T00:14:56.706Z,18.53
2023-05-22T00:17:26.694Z,15.17
2023-05-22T00:20:08.276Z,12.90
2023-05-22T00:22:38.297Z,13.80
2023-05-22T00:25:12.517Z,11.87
2023-05-22T00:27:42.309Z,15.93
2023-05-22T00:30:13.360Z,18.33
2023-05-22T00:32:43.258Z,15.30
2023-05-22T00:35:13.474Z,12.10
2023-05-22T00:37:44.933Z,18.10
2023-05-22T00:40:18.510Z,15.00
2023-05-22T00:42:48.574Z,16.03
2023-05-22T00:45:18.786Z,13.40
2023-05-22T00:47:49.778Z,14.83
2023-05-22T00:50:22.900Z,17.03
2023-05-22T00:52:52.700Z,12.30
2023-05-22T00:55:25.160Z,17.93
2023-05-22T00:57:55.324Z,14.60
2023-05-22T01:00:26.337Z,16.77
2023-05-22T01:02:56.325Z,19.03
2023-05-22T01:05:26.906Z,21.63
2023-05-22T01:07:57.336Z,19.97
2023-05-22T01:10:30.021Z,14.83
2023-05-22T01:13:07.580Z,15.10
2023-05-22T01:15:46.525Z,18.03
2023-05-22T01:18:22.382Z,17.07
2023-05-22T01:21:00.230Z,16.87
2023-05-22T01:23:57.852Z,15.13
2023-05-22T01:26:54.219Z,14.60
2023-05-22T01:29:50.871Z,14.03
2023-05-22T01:32:26.190Z,25.53
2023-05-22T01:34:58.140Z,30.60
2023-05-22T01:37:28.867Z,20.27
2023-05-22T01:39:59.175Z,14.63
2023-05-22T01:42:29.282Z,17.37
2023-05-22T01:45:00.292Z,19.47
2023-05-22T01:47:35.799Z,23.63
2023-05-22T01:50:06.148Z,20.33
2023-05-22T01:52:42.917Z,16.00
2023-05-22T01:55:17.882Z,18.43
2023-05-22T01:57:53.652Z,18.83
2023-05-22T02:00:25.209Z,22.67
2023-05-22T02:03:16.785Z,16.33
2023-05-22T02:05:48.482Z,20.43
2023-05-22T02:08:19.864Z,20.67
2023-05-22T02:10:51.384Z,17.73
2023-05-22T02:13:24.491Z,18.70
2023-05-22T02:15:54.650Z,16.53
2023-05-22T02:18:29.691Z,17.20
2023-05-22T02:20:59.907Z,19.33
2023-05-22T02:23:31.348Z,15.87
2023-05-22T02:26:01.171Z,14.53
2023-05-22T02:28:30.992Z,17.03
2023-05-22T02:31:00.849Z,16.13
2023-05-22T02:33:33.328Z,21.83
2023-05-22T02:36:03.304Z,17.93
2023-05-22T02:38:33.222Z,22.87
2023-05-22T02:41:04.054Z,20.30
2023-05-22T02:43:35.522Z,17.53
2023-05-22T02:46:05.456Z,19.63
2023-05-22T02:48:37.956Z,16.27
2023-05-22T02:51:08.024Z,15.90
2023-05-22T02:53:40.380Z,21.80
2023-05-22T02:56:10.915Z,21.13
2023-05-22T02:58:41.262Z,17.50
2023-05-22T03:01:11.914Z,22.23
2023-05-22T03:03:44.409Z,21.93
2023-05-22T03:06:15.227Z,17.93
2023-05-22T03:08:45.342Z,17.67
2023-05-22T03:11:15.207Z,18.53
2023-05-22T03:13:45.031Z,19.07
2023-05-22T03:16:14.968Z,23.07
2023-05-22T03:18:50.490Z,20.93
2023-05-22T03:21:20.964Z,23.77
2023-05-22T03:23:50.843Z,23.53
2023-05-22T03:26:21.558Z,18.80
2023-05-22T03:28:51.515Z,17.50
2023-05-22T03:31:21.632Z,20.50
2023-05-22T03:34:06.135Z,18.53
2023-05-22T03:36:38.131Z,17.00
2023-05-22T03:39:08.582Z,19.60
2023-05-22T03:41:43.384Z,22.63
2023-05-22T03:44:14.326Z,24.80
2023-05-22T03:46:44.218Z,22.10
2023-05-22T03:49:16.667Z,25.07
2023-05-22T03:51:46.543Z,30.33
2023-05-22T03:54:19.215Z,17.33
2023-05-22T03:56:49.016Z,22.60
2023-05-22T03:59:19.155Z,19.17
2023-05-22T04:01:49.396Z,23.03
2023-05-22T04:04:26.663Z,25.43
2023-05-22T04:06:58.356Z,21.80
2023-05-22T04:09:29.795Z,18.17
2023-05-22T04:12:01.924Z,21.10
2023-05-22T04:14:32.811Z,23.77
2023-05-22T04:17:02.698Z,17.40
2023-05-22T04:19:35.172Z,19.03
2023-05-22T04:22:05.073Z,23.40
2023-05-22T04:24:35.042Z,18.20
2023-05-22T04:27:04.863Z,20.63
2023-05-22T04:29:36.600Z,19.53
2023-05-22T04:32:10.683Z,25.17
2023-05-22T04:34:43.095Z,14.33
2023-05-22T04:37:15.274Z,17.40
2023-05-22T04:39:45.723Z,18.23
2023-05-22T04:42:16.221Z,18.83
2023-05-22T04:44:46.524Z,15.87
2023-05-22T04:47:16.588Z,15.80
2023-05-22T04:49:50.053Z,19.50
2023-05-22T04:52:19.883Z,16.80
2023-05-22T04:54:51.772Z,17.77
2023-05-22T04:57:22.027Z,16.30
2023-05-22T04:59:53.128Z,15.30
2023-05-22T05:02:23.207Z,17.87
2023-05-22T05:04:56.275Z,17.43
2023-05-22T05:07:26.354Z,21.03
2023-05-22T05:09:56.165Z,16.93
2023-05-22T05:12:26.005Z,21.23
2023-05-22T05:14:55.891Z,16.27
2023-05-22T05:17:25.760Z,17.13
2023-05-22T05:19:58.814Z,16.00
2023-05-22T05:22:29.362Z,18.87
2023-05-22T05:24:59.745Z,23.03
2023-05-22T05:27:29.698Z,22.63
2023-05-22T05:30:00.425Z,18.30
2023-05-22T05:32:41.795Z,24.80
2023-05-22T05:35:37.524Z,16.10
2023-05-22T05:38:11.975Z,18.93
2023-05-22T05:40:44.152Z,19.10
2023-05-22T05:43:16.489Z,46.10
2023-05-22T05:45:47.598Z,17.23
2023-05-22T05:48:17.422Z,24.43
2023-05-22T05:50:52.684Z,14.80
2023-05-22T05:53:22.739Z,17.67
2023-05-22T05:55:58.639Z,17.27
2023-05-22T05:58:29.702Z,22.70
2023-05-22T06:01:29.658Z,17.87
2023-05-22T06:04:03.272Z,15.03
2023-05-22T06:06:39.443Z,16.50
2023-05-22T06:09:18.337Z,18.97
2023-05-22T06:12:12.935Z,16.50
2023-05-22T06:14:46.116Z,16.10
2023-05-22T06:17:17.743Z,18.73
2023-05-22T06:19:48.492Z,25.33
2023-05-22T06:22:21.523Z,17.27
2023-05-22T06:24:54.503Z,14.97
2023-05-22T06:27:27.867Z,27.60
2023-05-22T06:29:58.239Z,15.40
2023-05-22T06:32:34.524Z,16.93
2023-05-22T06:35:04.962Z,14.33
2023-05-22T06:37:38.754Z,18.43
2023-05-22T06:40:11.017Z,19.40
2023-05-22T06:42:49.616Z,14.77
2023-05-22T06:45:40.228Z,18.07
2023-05-22T06:48:33.477Z,18.73
2023-05-22T06:51:11.798Z,22.50
2023-05-22T06:53:46.401Z,17.87
2023-05-22T06:56:20.939Z,18.80
2023-05-22T06:59:03.427Z,12.30
2023-05-22T07:01:54.855Z,13.93
2023-05-22T07:04:41.767Z,22.43
2023-05-22T07:07:15.790Z,21.63
2023-05-22T07:09:48.233Z,13.03
2023-05-22T07:12:20.549Z,19.60
2023-05-22T07:14:50.354Z,16.00
2023-05-22T07:17:21.938Z,16.37
2023-05-22T07:19:52.306Z,16.57
2023-05-22T07:22:22.323Z,25.53
2023-05-22T07:24:54.923Z,18.60
2023-05-22T07:27:26.225Z,14.80
2023-05-22T07:29:56.959Z,16.83
2023-05-22T07:32:26.892Z,16.00
2023-05-22T07:34:57.203Z,14.07
2023-05-22T07:37:27.288Z,17.20
2023-05-22T07:39:59.646Z,16.80
2023-05-22T07:42:30.373Z,14.07
2023-05-22T07:45:00.881Z,19.93
2023-05-22T07:47:32.164Z,14.43
2023-05-22T07:50:04.476Z,18.00
2023-05-22T07:52:35.465Z,18.83
2023-05-22T07:55:10.449Z,18.27
2023-05-22T07:57:43.848Z,13.87
2023-05-22T08:00:31.412Z,14.90
2023-05-22T08:03:01.360Z,19.10
2023-05-22T08:05:31.355Z,14.30
2023-05-22T08:08:01.163Z,15.73
2023-05-22T08:10:46.529Z,19.20
2023-05-22T08:13:17.862Z,17.90
2023-05-22T08:15:47.670Z,13.33
2023-05-22T08:18:17.560Z,15.27
2023-05-22T08:20:48.011Z,17.63
2023-05-22T08:23:17.763Z,15.60
2023-05-22T08:25:50.430Z,14.50
2023-05-22T08:28:20.376Z,14.00
2023-05-22T08:30:50.231Z,18.43
2023-05-22T08:33:19.999Z,13.73
2023-05-22T08:35:49.756Z,13.27
2023-05-22T08:38:19.672Z,18.40
2023-05-22T08:40:56.478Z,11.73
2023-05-22T08:43:27.401Z,12.77
2023-05-22T08:46:02.624Z,13.93
2023-05-22T08:48:34.345Z,15.50
2023-05-22T08:51:07.430Z,13.33
2023-05-22T08:53:38.642Z,11.73
2023-05-22T08:56:11.790Z,16.43
2023-05-22T08:58:41.932Z,17.53
2023-05-22T09:01:11.921Z,9.50
2023-05-22T09:03:42.204Z,18.10
2023-05-22T09:06:12.818Z,11.70
2023-05-22T09:08:42.924Z,11.03
2023-05-22T09:11:15.820Z,11.23
2023-05-22T09:13:45.980Z,15.57
2023-05-22T09:16:16.300Z,17.87
2023-05-22T09:18:46.422Z,26.53
2023-05-22T09:21:28.955Z,10.50
2023-05-22T09:24:02.940Z,10.20
2023-05-22T09:26:35.743Z,10.80
2023-05-22T09:29:05.872Z,14.53
2023-05-22T09:31:41.171Z,15.47
2023-05-22T09:34:14.488Z,12.80
2023-05-22T09:36:44.696Z,12.50
2023-05-22T09:39:14.684Z,16.17
2023-05-22T09:41:47.376Z,15.63
2023-05-22T09:44:18.262Z,16.30
2023-05-22T09:46:49.290Z,9.83
2023-05-22T09:49:19.291Z,13.60
2023-05-22T09:51:50.837Z,11.13
2023-05-22T09:54:22.968Z,13.47
2023-05-22T09:57:01.748Z,11.50
2023-05-22T09:59:33.576Z,12.10
2023-05-22T10:02:04.334Z,15.40
2023-05-22T10:04:37.013Z,9.40
2023-05-22T10:07:07.576Z,12.03
2023-05-22T10:09:41.609Z,10.83
2023-05-22T10:12:16.520Z,10.90
2023-05-22T10:14:46.780Z,10.47
2023-05-22T10:17:17.535Z,10.57
2023-05-22T10:19:49.752Z,9.57
2023-05-22T10:22:21.734Z,12.23
2023-05-22T10:24:52.377Z,10.80
2023-05-22T10:27:24.923Z,23.83
2023-05-22T10:30:01.390Z,12.70
2023-05-22T10:32:42.186Z,13.80
2023-05-22T10:35:20.981Z,16.93
2023-05-22T10:37:54.927Z,12.43
2023-05-22T10:40:29.392Z,15.60
2023-05-22T10:43:06.126Z,13.37
2023-05-22T10:45:36.822Z,12.40
2023-05-22T10:48:08.381Z,10.87
2023-05-22T10:50:39.210Z,13.77
2023-05-22T10:53:25.964Z,13.30
2023-05-22T10:55:57.132Z,15.23
2023-05-22T10:58:33.730Z,10.30
2023-05-22T11:01:15.755Z,13.03
2023-05-22T11:03:56.890Z,12.87
2023-05-22T11:06:34.380Z,9.93
2023-05-22T11:09:20.220Z,8.80
2023-05-22T11:11:51.171Z,9.90
2023-05-22T11:14:23.580Z,9.80
2023-05-22T11:17:03.030Z,14.70
2023-05-22T11:19:32.912Z,12.40
2023-05-22T11:22:03.988Z,9.40
2023-05-22T11:24:35.998Z,10.70
2023-05-22T11:27:09.577Z,9.53
2023-05-22T11:29:44.675Z,17.50
2023-05-22T11:32:20.999Z,16.83
2023-05-22T11:34:51.186Z,9.27
2023-05-22T11:37:21.770Z,12.63
2023-05-22T11:39:58.313Z,10.10
2023-05-22T11:42:28.177Z,11.33
2023-05-22T11:45:01.407Z,9.73
2023-05-22T11:47:31.677Z,9.53
2023-05-22T11:50:02.143Z,9.00
2023-05-22T11:52:35.213Z,11.40
2023-05-22T11:55:06.757Z,13.70
2023-05-22T11:57:37.151Z,9.57
2023-05-22T12:00:12.174Z,12.50
2023-05-22T12:02:48.058Z,12.40
2023-05-22T12:05:18.750Z,19.20
2023-05-22T12:07:48.643Z,14.53
2023-05-22T12:10:18.521Z,16.00
2023-05-22T12:12:48.477Z,10.50
2023-05-22T12:15:21.908Z,19.67
2023-05-22T12:17:51.892Z,10.83
2023-05-22T12:20:21.767Z,10.97
2023-05-22T12:22:52.251Z,8.60
2023-05-22T12:25:24.605Z,12.03
2023-05-22T12:27:54.496Z,10.27
2023-05-22T12:30:26.928Z,12.70
2023-05-22T12:32:59.240Z,12.43
2023-05-22T12:35:32.013Z,10.03
2023-05-22T12:38:01.864Z,7.73
2023-05-22T12:40:31.642Z,11.57
2023-05-22T12:43:01.511Z,15.07
2023-05-22T12:45:34.042Z,10.07
2023-05-22T12:48:04.239Z,10.40
2023-05-22T12:50:36.484Z,12.20
2023-05-22T12:53:06.876Z,14.13
2023-05-22T12:55:37.109Z,19.03
2023-05-22T12:58:07.001Z,17.83
2023-05-22T13:00:39.600Z,9.43
2023-05-22T13:03:09.804Z,10.67
2023-05-22T13:05:39.956Z,7.93
2023-05-22T13:08:10.085Z,10.20
2023-05-22T13:10:39.898Z,12.30
2023-05-22T13:13:09.676Z,12.60
2023-05-22T13:15:42.282Z,23.50
2023-05-22T13:18:13.083Z,7.40
2023-05-22T13:20:42.870Z,11.30
2023-05-22T13:23:12.674Z,10.20
2023-05-22T13:25:42.784Z,9.13
2023-05-22T13:28:12.544Z,9.23
2023-05-22T13:30:45.014Z,13.37
2023-05-22T13:33:15.017Z,12.77
2023-05-22T13:35:44.949Z,22.40
2023-05-22T13:38:14.734Z,8.83
2023-05-22T13:40:45.761Z,8.83
2023-05-22T13:43:17.463Z,9.57
2023-05-22T13:45:49.844Z,10.07
2023-05-22T13:48:19.940Z,10.23
2023-05-22T13:50:49.731Z,11.07
2023-05-22T13:53:19.876Z,15.40
2023-05-22T13:55:50.010Z,19.67
2023-05-22T13:58:19.889Z,11.10
2023-05-22T14:00:52.408Z,7.87
2023-05-22T14:03:22.252Z,12.07
2023-05-22T14:05:52.348Z,10.70
2023-05-22T14:08:22.182Z,9.00
2023-05-22T14:10:52.005Z,20.93
2023-05-22T14:13:21.913Z,17.57
2023-05-22T14:15:54.372Z,14.83
2023-05-22T14:18:24.227Z,10.70
2023-05-22T14:20:54.032Z,13.57
2023-05-22T14:23:24.080Z,11.37
2023-05-22T14:25:54.164Z,8.53
2023-05-22T14:28:24.652Z,14.83
2023-05-22T14:30:57.076Z,45.73
2023-05-22T14:33:26.908Z,49.20
2023-05-22T14:35:56.747Z,19.33
2023-05-22T14:38:26.706Z,15.50
2023-05-22T14:40:56.505Z,14.63
2023-05-22T14:43:26.297Z,15.80
2023-05-22T14:45:59.395Z,15.03
2023-05-22T14:48:29.947Z,16.70
2023-05-22T14:50:59.889Z,15.20
2023-05-22T14:53:29.682Z,17.43
2023-05-22T14:55:59.467Z,13.73
2023-05-22T14:58:29.245Z,17.97
2023-05-22T15:01:01.568Z,15.03
2023-05-22T15:03:31.311Z,14.07
2023-05-22T15:06:01.057Z,17.37
2023-05-22T15:08:30.781Z,14.80
2023-05-22T15:11:00.579Z,24.00
2023-05-22T15:13:30.304Z,14.90
2023-05-22T15:16:02.679Z,12.37
2023-05-22T15:18:32.462Z,10.97
2023-05-22T15:21:02.586Z,11.27
2023-05-22T15:23:32.311Z,11.33
2023-05-22T15:26:02.032Z,14.63
2023-05-22T15:28:31.779Z,13.03
2023-05-22T15:31:04.084Z,10.27
2023-05-22T15:33:34.478Z,10.93
2023-05-22T15:36:04.249Z,12.03
2023-05-22T15:38:33.968Z,11.63
2023-05-22T15:41:03.766Z,13.37
2023-05-22T15:43:33.621Z,11.80
2023-05-22T15:46:06.088Z,14.93
2023-05-22T15:48:35.831Z,19.30
2023-05-22T15:51:06.913Z,11.63
2023-05-22T15:53:36.702Z,13.23
2023-05-22T15:56:06.913Z,15.97
2023-05-22T15:58:36.675Z,15.17
2023-05-22T16:01:09.134Z,11.33
2023-05-22T16:03:39.062Z,16.17
2023-05-22T16:06:09.690Z,10.30
2023-05-22T16:08:39.396Z,11.43
2023-05-22T16:11:09.114Z,13.13
2023-05-22T16:13:38.942Z,11.33
2023-05-22T16:18:23.979Z,12.03
2023-05-22T16:20:54.242Z,12.13
2023-05-22T16:23:24.012Z,11.33
2023-05-22T16:25:53.719Z,12.40
2023-05-22T16:28:23.698Z,11.23
2023-05-22T16:30:53.425Z,8.47
2023-05-22T16:33:26.033Z,13.07
2023-05-22T16:35:55.782Z,8.77
2023-05-22T16:38:25.665Z,9.23
2023-05-22T16:40:55.472Z,11.80
2023-05-22T16:43:25.220Z,10.83
2023-05-22T16:45:54.995Z,10.73
2023-05-22T16:48:27.387Z,11.97
2023-05-22T16:50:57.185Z,11.10
2023-05-22T16:53:26.991Z,17.47
2023-05-22T16:55:56.794Z,7.83
2023-05-22T16:58:26.572Z,11.53
2023-05-22T17:00:56.673Z,13.10
2023-05-22T17:03:29.178Z,9.53
2023-05-22T17:05:58.989Z,12.40
2023-05-22T17:08:28.730Z,15.37
2023-05-22T17:10:58.537Z,9.60
2023-05-22T17:13:28.231Z,10.10
2023-05-22T17:15:58.026Z,9.90
2023-05-22T17:18:30.338Z,13.00
2023-05-22T17:21:00.411Z,11.03
2023-05-22T17:23:30.540Z,9.73
2023-05-22T17:26:00.239Z,8.80
2023-05-22T17:28:29.966Z,9.50
2023-05-22T17:30:59.890Z,12.40
2023-05-22T17:33:34.661Z,13.00
2023-05-22T17:36:04.379Z,11.60
2023-05-22T17:38:34.108Z,12.47
2023-05-22T17:41:03.898Z,13.23
2023-05-22T17:43:35.269Z,10.73
2023-05-22T17:46:05.159Z,15.17
2023-05-22T17:48:37.579Z,12.47
2023-05-22T17:51:07.316Z,15.50
2023-05-22T17:53:39.052Z,11.13
2023-05-22T17:56:09.376Z,16.00
2023-05-22T17:58:39.116Z,14.03
2023-05-22T18:01:08.901Z,16.63
2023-05-22T18:03:41.352Z,17.03
2023-05-22T18:06:11.142Z,14.97
2023-05-22T18:08:40.863Z,15.63
2023-05-22T18:11:10.657Z,14.03
2023-05-22T18:13:40.351Z,18.00
2023-05-22T18:16:10.139Z,14.67
2023-05-22T18:18:42.492Z,12.80
2023-05-22T18:21:12.196Z,16.97
2023-05-22T18:23:41.893Z,17.20
2023-05-22T18:26:11.818Z,13.80
2023-05-22T18:28:42.600Z,17.73
2023-05-22T18:31:12.414Z,19.03
2023-05-22T18:33:44.927Z,15.47
2023-05-22T18:36:15.218Z,14.53
2023-05-22T18:38:44.929Z,13.10
2023-05-22T18:41:14.653Z,15.80
2023-05-22T18:43:44.344Z,17.40
2023-05-22T18:46:14.278Z,13.73
2023-05-22T18:48:46.565Z,14.47
2023-05-22T18:51:16.752Z,14.33
2023-05-22T18:53:46.474Z,16.63
2023-05-22T18:56:16.202Z,17.87
2023-05-22T18:58:45.893Z,17.73
2023-05-22T19:01:16.856Z,14.70
2023-05-22T19:03:49.192Z,14.83
2023-05-22T19:06:18.970Z,21.73
2023-05-22T19:08:48.813Z,15.10
2023-05-22T19:11:18.664Z,17.83
2023-05-22T19:13:48.386Z,13.40
2023-05-22T19:16:18.195Z,19.53
2023-05-22T19:18:50.608Z,13.00
2023-05-22T19:21:20.381Z,16.97
2023-05-22T19:23:50.086Z,15.70
2023-05-22T19:26:19.880Z,14.67
2023-05-22T19:28:49.626Z,14.53
2023-05-22T19:31:24.466Z,14.67
2023-05-22T19:33:58.102Z,14.77
2023-05-22T19:36:28.185Z,20.30
2023-05-22T19:38:58.094Z,21.50
2023-05-22T19:41:28.074Z,20.30
2023-05-22T19:43:58.036Z,15.33
2023-05-22T19:46:28.033Z,17.60
2023-05-22T19:49:00.831Z,16.37
2023-05-22T19:51:31.293Z,22.53
2023-05-22T19:54:02.133Z,18.50
2023-05-22T19:56:32.771Z,19.73
2023-05-22T19:59:03.291Z,23.07
2023-05-22T20:01:33.168Z,20.80
2023-05-22T20:04:06.127Z,17.70
2023-05-22T20:06:36.046Z,18.90
2023-05-22T20:09:06.217Z,21.23
2023-05-22T20:11:36.208Z,15.07
2023-05-22T20:14:06.102Z,17.87
2023-05-22T20:16:36.090Z,21.03
2023-05-22T20:19:09.354Z,16.13
2023-05-22T20:21:39.296Z,16.50
2023-05-22T20:24:12.494Z,19.83
2023-05-22T20:26:42.404Z,17.83
2023-05-22T20:29:12.185Z,17.77
2023-05-22T20:31:42.662Z,15.73
2023-05-22T20:34:15.911Z,20.93
2023-05-22T20:36:48.623Z,16.37
2023-05-22T20:39:19.151Z,22.80
2023-05-22T20:41:49.917Z,16.77
2023-05-22T20:44:23.893Z,17.83
2023-05-22T20:46:54.561Z,16.33
2023-05-22T20:49:28.241Z,17.63
2023-05-22T20:52:00.263Z,18.10
2023-05-22T20:54:34.460Z,18.33
2023-05-22T20:57:04.929Z,19.00
2023-05-22T20:59:37.750Z,19.67
2023-05-22T21:02:08.243Z,17.87
2023-05-22T21:04:41.086Z,16.80
2023-05-22T21:07:10.977Z,15.70
2023-05-22T21:09:40.749Z,19.77
2023-05-22T21:12:11.180Z,17.67
2023-05-22T21:14:41.111Z,17.50
2023-05-22T21:17:10.957Z,18.60
2023-05-22T21:19:43.524Z,17.20
2023-05-22T21:22:13.344Z,25.97
2023-05-22T21:24:43.289Z,17.40
2023-05-22T21:27:13.103Z,16.70
2023-05-22T21:29:42.894Z,21.23
2023-05-22T21:32:12.697Z,18.83
2023-05-22T21:34:45.114Z,21.50
2023-05-22T21:37:14.996Z,16.63
2023-05-22T21:39:44.781Z,18.60
2023-05-22T21:42:14.616Z,19.37
2023-05-22T21:44:44.499Z,15.20
2023-05-22T21:47:14.581Z,16.13
2023-05-22T21:49:47.370Z,14.30
2023-05-22T21:52:17.955Z,14.80
2023-05-22T21:54:47.730Z,18.60
2023-05-22T21:57:17.493Z,14.67
2023-05-22T21:59:47.458Z,17.37
2023-05-22T22:02:17.404Z,17.80
2023-05-22T22:04:50.056Z,20.43
2023-05-22T22:07:20.149Z,16.77
2023-05-22T22:09:50.088Z,21.17
2023-05-22T22:12:20.105Z,19.97
2023-05-22T22:14:49.920Z,17.17
2023-05-22T22:17:23.955Z,15.23
2023-05-22T22:19:57.782Z,14.93
2023-05-22T22:22:28.049Z,16.83
2023-05-22T22:24:57.881Z,17.10
2023-05-22T22:27:27.909Z,14.67
2023-05-22T22:29:57.786Z,12.90
2023-05-22T22:32:27.953Z,11.80
2023-05-22T22:35:00.758Z,15.13
2023-05-22T22:37:31.312Z,14.07
2023-05-22T22:40:01.414Z,15.20
2023-05-22T22:42:32.395Z,13.57
2023-05-22T22:45:02.584Z,15.33
2023-05-22T22:47:34.213Z,24.20
2023-05-22T22:50:08.486Z,40.30
2023-05-22T22:52:38.517Z,41.97
2023-05-22T22:55:11.275Z,41.43
2023-05-22T22:57:43.496Z,55.50
2023-05-22T23:00:16.335Z,53.47
2023-05-22T23:02:46.316Z,56.43
2023-05-22T23:05:20.637Z,56.67
2023-05-22T23:07:51.023Z,54.30
2023-05-22T23:10:21.381Z,50.70
2023-05-22T23:12:51.656Z,53.33
2023-05-22T23:15:21.857Z,58.90
2023-05-22T23:17:52.218Z,60.17
2023-05-22T23:20:24.981Z,64.50
2023-05-22T23:22:55.620Z,54.83
2023-05-22T23:25:25.779Z,61.83
2023-05-22T23:27:56.175Z,58.03
2023-05-22T23:30:26.285Z,48.47
2023-05-22T23:32:56.523Z,49.60
2023-05-22T23:35:29.262Z,52.60
2023-05-22T23:37:59.572Z,59.53
2023-05-22T23:40:29.781Z,51.70
2023-05-22T23:42:59.896Z,49.77
2023-05-22T23:45:29.860Z,57.20
2023-05-22T23:47:59.714Z,51.77
2023-05-22T23:50:32.533Z,52.07
2023-05-22T23:53:02.568Z,59.77
2023-05-22T23:55:32.614Z,53.30
2023-05-22T23:58:02.707Z,59.70
